This is the latest recevied weather packets stored in our database for station/object MMMX. If no packets are shown the sender has not sent any weather packets the latest 10 day(s).
| Time | Temp. | Humidity | Pressure | Rain* | Wind** | Luminosity | Snow |
|---|---|---|---|---|---|---|---|
| 1777498424 | 31.67° C | 6% | 1022.4 hPa | - | - | - | - |
| 1777497227 | 31.67° C | 6% | 1022.4 hPa | - | - | - | - |
| 1777496627 | 31.67° C | 6% | 1022.4 hPa | - | - | - | - |
| 1777496028 | 30.56° C | 6% | 1023.4 hPa | - | - | - | - |
| 1777495426 | 30.56° C | 6% | 1023.4 hPa | - | - | - | - |
| 1777494825 | 30.56° C | 6% | 1023.4 hPa | - | - | - | - |
| 1777494223 | 30.56° C | 6% | 1023.4 hPa | - | - | - | - |
| 1777493625 | 30.56° C | 6% | 1023.4 hPa | - | - | - | - |
| 1777493027 | 30.56° C | 6% | 1023.4 hPa | - | - | - | - |
| 1777492424 | 30.56° C | 7% | 1023.7 hPa | - | - | - | - |
| 1777491227 | 30.56° C | 7% | 1023.7 hPa | - | - | - | - |
| 1777490628 | 28.89° C | 9% | 1024.7 hPa | - | - | - | - |
| 1777490027 | 28.89° C | 9% | 1024.7 hPa | - | - | - | - |
| 1777489428 | 28.89° C | 9% | 1024.7 hPa | - | - | - | - |
| 1777487626 | 28.89° C | 9% | 1025.1 hPa | - | - | - | - |
| 1777487034 | 26.67° C | 12% | 1026.4 hPa | - | - | - | - |
| 1777486425 | 26.67° C | 12% | 1026.4 hPa | - | - | - | - |
| 1777485825 | 26.67° C | 12% | 1026.4 hPa | - | - | - | - |
| 1777482824 | 26.67° C | 14% | 1026.8 hPa | - | - | - | - |
| 1777481627 | 23.89° C | 23% | 1027.4 hPa | - | - | - | - |
| 1777480428 | 23.89° C | 23% | 1027.4 hPa | - | - | - | - |
| 1777479827 | 23.89° C | 23% | 1027.4 hPa | - | - | - | - |
| 1777476829 | 20.56° C | 30% | 1027.4 hPa | - | - | - | - |
| 1777476227 | 20.56° C | 30% | 1027.4 hPa | - | - | - | - |
| 1777471423 | 18.89° C | 32% | 1027.1 hPa | - | - | - | - |
* Rain since midnight (hover to see other rain measurements)
** Current wind speed in m/s (hover to see current wind gust speed)